sensor_id;sensor_type;location;lat;lon;timestamp;pressure;altitude;pressure_sealevel;temperature;humidity
37710;BME280;60223;34.854;-92.408;2022-07-24T00:00:45;100419.56;;;27.88;28.10
37710;BME280;60223;34.854;-92.408;2022-07-24T00:03:10;100418.97;;;27.41;28.28
37710;BME280;60223;34.854;-92.408;2022-07-24T00:05:36;100423.22;;;24.54;31.13
37710;BME280;60223;34.854;-92.408;2022-07-24T00:07:59;100423.05;;;24.78;30.93
37710;BME280;60223;34.854;-92.408;2022-07-24T00:10:26;100429.65;;;23.25;32.68
37710;BME280;60223;34.854;-92.408;2022-07-24T00:12:53;100426.11;;;23.05;32.82
37710;BME280;60223;34.854;-92.408;2022-07-24T00:15:18;100423.95;;;24.41;31.29
37710;BME280;60223;34.854;-92.408;2022-07-24T00:17:44;100438.48;;;23.99;31.72
37710;BME280;60223;34.854;-92.408;2022-07-24T00:20:09;100442.74;;;23.38;32.14
37710;BME280;60223;34.854;-92.408;2022-07-24T00:22:35;100440.44;;;22.49;33.20
37710;BME280;60223;34.854;-92.408;2022-07-24T00:25:01;100440.93;;;23.08;32.38
37710;BME280;60223;34.854;-92.408;2022-07-24T00:27:24;100436.98;;;21.94;33.26
37710;BME280;60223;34.854;-92.408;2022-07-24T00:29:52;100439.06;;;21.97;33.58
37710;BME280;60223;34.854;-92.408;2022-07-24T00:32:17;100439.88;;;22.76;32.88
37710;BME280;60223;34.854;-92.408;2022-07-24T00:34:42;100445.87;;;22.44;32.66
37710;BME280;60223;34.854;-92.408;2022-07-24T00:37:05;100452.73;;;22.08;33.39
37710;BME280;60223;34.854;-92.408;2022-07-24T00:39:34;100452.17;;;25.39;29.48
37710;BME280;60223;34.854;-92.408;2022-07-24T00:41:59;100454.83;;;25.41;29.37
37710;BME280;60223;34.854;-92.408;2022-07-24T00:44:26;100462.63;;;24.34;30.36
37710;BME280;60223;34.854;-92.408;2022-07-24T00:46:51;100459.86;;;23.91;30.73
37710;BME280;60223;34.854;-92.408;2022-07-24T00:49:18;100460.44;;;24.73;29.58
37710;BME280;60223;34.854;-92.408;2022-07-24T00:51:44;100463.37;;;24.10;29.86
37710;BME280;60223;34.854;-92.408;2022-07-24T01:06:14;100465.05;;;27.37;27.27
37710;BME280;60223;34.854;-92.408;2022-07-24T01:08:40;100468.49;;;28.58;25.72
37710;BME280;60223;34.854;-92.408;2022-07-24T01:11:07;100469.38;;;28.83;25.66
37710;BME280;60223;34.854;-92.408;2022-07-24T01:13:32;100471.09;;;29.16;24.92
37710;BME280;60223;34.854;-92.408;2022-07-24T01:15:58;100474.88;;;29.38;24.72
37710;BME280;60223;34.854;-92.408;2022-07-24T01:18:21;100477.83;;;29.21;24.99
37710;BME280;60223;34.854;-92.408;2022-07-24T01:20:50;100477.55;;;29.85;24.63
37710;BME280;60223;34.854;-92.408;2022-07-24T01:23:14;100477.26;;;29.78;24.52
37710;BME280;60223;34.854;-92.408;2022-07-24T01:25:40;100474.19;;;29.52;24.71
37710;BME280;60223;34.854;-92.408;2022-07-24T01:28:06;100476.69;;;29.60;24.77
37710;BME280;60223;34.854;-92.408;2022-07-24T01:30:31;100481.23;;;29.19;25.23
37710;BME280;60223;34.854;-92.408;2022-07-24T01:32:57;100479.95;;;30.28;24.56
37710;BME280;60223;34.854;-92.408;2022-07-24T01:35:23;100479.27;;;30.08;24.99
37710;BME280;60223;34.854;-92.408;2022-07-24T01:37:46;100480.39;;;30.20;24.86
37710;BME280;60223;34.854;-92.408;2022-07-24T01:40:15;100486.61;;;29.84;25.57
37710;BME280;60223;34.854;-92.408;2022-07-24T01:42:39;100492.44;;;30.35;25.25
37710;BME280;60223;34.854;-92.408;2022-07-24T01:45:06;100492.56;;;30.01;25.43
37710;BME280;60223;34.854;-92.408;2022-07-24T01:47:31;100493.11;;;29.89;26.07
37710;BME280;60223;34.854;-92.408;2022-07-24T01:49:57;100492.55;;;30.57;25.36
37710;BME280;60223;34.854;-92.408;2022-07-24T01:52:21;100496.77;;;30.03;25.80
37710;BME280;60223;34.854;-92.408;2022-07-24T01:54:47;100494.94;;;30.77;26.06
37710;BME280;60223;34.854;-92.408;2022-07-24T01:57:12;100498.27;;;30.74;26.22
37710;BME280;60223;34.854;-92.408;2022-07-24T01:59:39;100498.16;;;30.46;26.57
37710;BME280;60223;34.854;-92.408;2022-07-24T02:02:05;100497.24;;;27.89;29.19
37710;BME280;60223;34.854;-92.408;2022-07-24T02:04:30;100503.00;;;27.98;28.78
37710;BME280;60223;34.854;-92.408;2022-07-24T02:06:55;100502.63;;;27.01;29.29
37710;BME280;60223;34.854;-92.408;2022-07-24T02:09:18;100504.78;;;26.54;29.85
37710;BME280;60223;34.854;-92.408;2022-07-24T02:11:44;100507.81;;;25.25;30.86
37710;BME280;60223;34.854;-92.408;2022-07-24T02:14:12;100520.01;;;24.27;31.49
37710;BME280;60223;34.854;-92.408;2022-07-24T02:16:38;100521.45;;;23.49;32.59
37710;BME280;60223;34.854;-92.408;2022-07-24T02:19:03;100519.95;;;23.68;32.55
37710;BME280;60223;34.854;-92.408;2022-07-24T02:21:29;100522.29;;;24.40;31.76
37710;BME280;60223;34.854;-92.408;2022-07-24T02:23:55;100519.86;;;23.75;32.15
37710;BME280;60223;34.854;-92.408;2022-07-24T02:26:18;100519.78;;;23.36;32.30
37710;BME280;60223;34.854;-92.408;2022-07-24T02:28:46;100521.77;;;22.75;32.91
37710;BME280;60223;34.854;-92.408;2022-07-24T02:31:11;100529.82;;;23.28;32.09
37710;BME280;60223;34.854;-92.408;2022-07-24T02:33:37;100534.42;;;22.93;32.33
37710;BME280;60223;34.854;-92.408;2022-07-24T02:36:03;100536.07;;;22.83;32.22
37710;BME280;60223;34.854;-92.408;2022-07-24T02:38:29;100542.50;;;22.80;32.00
37710;BME280;60223;34.854;-92.408;2022-07-24T02:40:52;100543.67;;;22.91;31.68
37710;BME280;60223;34.854;-92.408;2022-07-24T02:43:20;100548.09;;;23.20;31.73
37710;BME280;60223;34.854;-92.408;2022-07-24T02:45:45;100555.94;;;22.51;32.38
37710;BME280;60223;34.854;-92.408;2022-07-24T02:48:11;100556.62;;;22.64;31.99
37710;BME280;60223;34.854;-92.408;2022-07-24T02:50:37;100553.62;;;22.36;32.47
37710;BME280;60223;34.854;-92.408;2022-07-24T02:53:02;100557.04;;;22.69;31.68
37710;BME280;60223;34.854;-92.408;2022-07-24T02:55:26;100563.54;;;22.74;31.79
37710;BME280;60223;34.854;-92.408;2022-07-24T02:57:53;100571.39;;;23.47;32.70
37710;BME280;60223;34.854;-92.408;2022-07-24T03:00:18;100574.38;;;26.83;28.00
37710;BME280;60223;34.854;-92.408;2022-07-24T03:02:46;100571.28;;;27.80;26.91
37710;BME280;60223;34.854;-92.408;2022-07-24T03:05:11;100568.53;;;28.25;26.59
37710;BME280;60223;34.854;-92.408;2022-07-24T03:07:36;100570.72;;;28.51;25.95
37710;BME280;60223;34.854;-92.408;2022-07-24T03:10:00;100571.33;;;29.20;25.54
37710;BME280;60223;34.854;-92.408;2022-07-24T03:12:28;100574.18;;;28.94;25.50
37710;BME280;60223;34.854;-92.408;2022-07-24T03:14:53;100574.33;;;29.15;25.25
37710;BME280;60223;34.854;-92.408;2022-07-24T03:17:18;100575.05;;;29.29;25.21
37710;BME280;60223;34.854;-92.408;2022-07-24T03:19:44;100574.86;;;29.31;25.30
37710;BME280;60223;34.854;-92.408;2022-07-24T03:22:08;100582.00;;;29.54;25.27
37710;BME280;60223;34.854;-92.408;2022-07-24T03:24:35;100585.20;;;29.95;24.96
37710;BME280;60223;34.854;-92.408;2022-07-24T03:27:01;100582.48;;;29.62;25.11
37710;BME280;60223;34.854;-92.408;2022-07-24T03:29:24;100587.55;;;29.76;25.02
37710;BME280;60223;34.854;-92.408;2022-07-24T03:31:52;100587.96;;;29.78;25.08
37710;BME280;60223;34.854;-92.408;2022-07-24T03:34:18;100588.52;;;30.05;25.18
37710;BME280;60223;34.854;-92.408;2022-07-24T03:36:42;100588.29;;;29.61;25.45
37710;BME280;60223;34.854;-92.408;2022-07-24T03:39:08;100590.04;;;29.89;25.24
37710;BME280;60223;34.854;-92.408;2022-07-24T03:49:03;100585.25;;;30.23;25.28
37710;BME280;60223;34.854;-92.408;2022-07-24T03:51:14;100583.60;;;30.72;24.89
37710;BME280;60223;34.854;-92.408;2022-07-24T03:53:43;100584.00;;;30.35;25.09
37710;BME280;60223;34.854;-92.408;2022-07-24T03:56:09;100585.21;;;30.03;25.20
37710;BME280;60223;34.854;-92.408;2022-07-24T03:58:34;100580.73;;;29.75;25.54
37710;BME280;60223;34.854;-92.408;2022-07-24T04:00:58;100574.28;;;30.29;25.47
37710;BME280;60223;34.854;-92.408;2022-07-24T04:03:25;100577.87;;;30.42;25.40
37710;BME280;60223;34.854;-92.408;2022-07-24T04:05:50;100569.87;;;27.76;28.21
37710;BME280;60223;34.854;-92.408;2022-07-24T04:08:14;100569.18;;;28.15;28.05
37710;BME280;60223;34.854;-92.408;2022-07-24T04:10:42;100567.65;;;24.47;31.87
37710;BME280;60223;34.854;-92.408;2022-07-24T04:13:06;100568.50;;;25.19;30.97
37710;BME280;60223;34.854;-92.408;2022-07-24T04:15:33;100571.11;;;25.13;30.74
37710;BME280;60223;34.854;-92.408;2022-07-24T04:17:59;100569.63;;;23.02;33.68
37710;BME280;60223;34.854;-92.408;2022-07-24T04:20:24;100576.81;;;23.14;33.30
37710;BME280;60223;34.854;-92.408;2022-07-24T04:22:50;100586.04;;;24.70;31.64
37710;BME280;60223;34.854;-92.408;2022-07-24T04:25:15;100590.97;;;25.43;30.27
37710;BME280;60223;34.854;-92.408;2022-07-24T04:27:41;100594.07;;;27.27;29.16
37710;BME280;60223;34.854;-92.408;2022-07-24T04:30:08;100598.76;;;25.02;30.18
37710;BME280;60223;34.854;-92.408;2022-07-24T04:32:32;100590.82;;;26.57;28.25
37710;BME280;60223;34.854;-92.408;2022-07-24T04:34:56;100587.90;;;26.72;28.32
37710;BME280;60223;34.854;-92.408;2022-07-24T04:37:24;100590.22;;;24.98;29.65
37710;BME280;60223;34.854;-92.408;2022-07-24T04:39:48;100585.23;;;26.50;28.32
37710;BME280;60223;34.854;-92.408;2022-07-24T04:42:14;100593.32;;;25.02;29.50
37710;BME280;60223;34.854;-92.408;2022-07-24T04:44:40;100594.04;;;24.84;29.70
37710;BME280;60223;34.854;-92.408;2022-07-24T04:47:06;100591.05;;;24.70;29.56
37710;BME280;60223;34.854;-92.408;2022-07-24T04:49:32;100591.79;;;25.41;28.83
37710;BME280;60223;34.854;-92.408;2022-07-24T04:51:55;100592.12;;;24.71;29.31
37710;BME280;60223;34.854;-92.408;2022-07-24T04:54:23;100599.79;;;25.65;29.99
37710;BME280;60223;34.854;-92.408;2022-07-24T04:56:47;100594.04;;;26.51;28.50
37710;BME280;60223;34.854;-92.408;2022-07-24T04:59:11;100593.36;;;28.74;26.46
37710;BME280;60223;34.854;-92.408;2022-07-24T05:01:38;100585.59;;;29.30;25.84
37710;BME280;60223;34.854;-92.408;2022-07-24T05:04:05;100588.14;;;28.79;25.87
37710;BME280;60223;34.854;-92.408;2022-07-24T05:06:30;100587.53;;;29.12;25.77
37710;BME280;60223;34.854;-92.408;2022-07-24T05:08:56;100581.67;;;28.75;25.94
37710;BME280;60223;34.854;-92.408;2022-07-24T05:11:22;100576.95;;;29.07;25.56
37710;BME280;60223;34.854;-92.408;2022-07-24T05:13:45;100575.08;;;29.52;25.29
37710;BME280;60223;34.854;-92.408;2022-07-24T05:16:13;100577.66;;;29.33;25.49
37710;BME280;60223;34.854;-92.408;2022-07-24T05:18:39;100586.01;;;29.86;25.17
37710;BME280;60223;34.854;-92.408;2022-07-24T05:21:04;100588.90;;;30.01;25.14
37710;BME280;60223;34.854;-92.408;2022-07-24T05:23:30;100585.46;;;29.76;25.25
37710;BME280;60223;34.854;-92.408;2022-07-24T05:25:56;100581.04;;;30.23;25.15
37710;BME280;60223;34.854;-92.408;2022-07-24T05:28:19;100581.64;;;29.69;25.28
37710;BME280;60223;34.854;-92.408;2022-07-24T05:30:47;100580.48;;;29.68;25.33
37710;BME280;60223;34.854;-92.408;2022-07-24T05:33:12;100582.07;;;29.79;25.11
37710;BME280;60223;34.854;-92.408;2022-07-24T05:35:38;100581.07;;;29.82;25.41
37710;BME280;60223;34.854;-92.408;2022-07-24T05:38:04;100587.08;;;29.59;25.70
37710;BME280;60223;34.854;-92.408;2022-07-24T05:40:30;100587.42;;;29.84;25.56
37710;BME280;60223;34.854;-92.408;2022-07-24T05:42:52;100582.39;;;29.95;25.54
37710;BME280;60223;34.854;-92.408;2022-07-24T05:45:21;100584.63;;;29.64;25.68
37710;BME280;60223;34.854;-92.408;2022-07-24T05:47:46;100580.29;;;30.02;25.63
37710;BME280;60223;34.854;-92.408;2022-07-24T05:50:14;100584.79;;;29.57;25.93
37710;BME280;60223;34.854;-92.408;2022-07-24T05:52:37;100580.05;;;29.80;25.79
37710;BME280;60223;34.854;-92.408;2022-07-24T05:55:03;100580.99;;;29.98;25.91
37710;BME280;60223;34.854;-92.408;2022-07-24T05:57:26;100577.30;;;29.86;25.90
37710;BME280;60223;34.854;-92.408;2022-07-24T05:59:52;100581.99;;;30.20;25.87
37710;BME280;60223;34.854;-92.408;2022-07-24T06:02:20;100578.26;;;30.17;25.96
37710;BME280;60223;34.854;-92.408;2022-07-24T06:04:45;100579.81;;;30.04;25.87
37710;BME280;60223;34.854;-92.408;2022-07-24T06:07:11;100572.55;;;29.94;26.05
37710;BME280;60223;34.854;-92.408;2022-07-24T06:09:36;100574.94;;;30.35;25.92
37710;BME280;60223;34.854;-92.408;2022-07-24T06:11:59;100575.47;;;30.11;26.00
37710;BME280;60223;34.854;-92.408;2022-07-24T06:14:28;100576.15;;;30.41;25.79
37710;BME280;60223;34.854;-92.408;2022-07-24T06:16:52;100576.60;;;29.91;26.08
37710;BME280;60223;34.854;-92.408;2022-07-24T06:19:18;100580.44;;;29.92;26.08
37710;BME280;60223;34.854;-92.408;2022-07-24T06:21:44;100568.31;;;27.74;28.42
37710;BME280;60223;34.854;-92.408;2022-07-24T06:24:10;100570.97;;;25.43;30.52
37710;BME280;60223;34.854;-92.408;2022-07-24T06:26:36;100564.35;;;26.48;29.75
37710;BME280;60223;34.854;-92.408;2022-07-24T06:28:59;100562.66;;;25.48;30.45
37710;BME280;60223;34.854;-92.408;2022-07-24T06:31:27;100560.79;;;24.93;31.11
37710;BME280;60223;34.854;-92.408;2022-07-24T06:33:52;100556.81;;;25.82;29.92
37710;BME280;60223;34.854;-92.408;2022-07-24T06:36:18;100562.38;;;24.85;31.01
37710;BME280;60223;34.854;-92.408;2022-07-24T06:38:43;100562.36;;;25.00;30.56
37710;BME280;60223;34.854;-92.408;2022-07-24T06:41:06;100552.93;;;23.67;31.82
37710;BME280;60223;34.854;-92.408;2022-07-24T06:43:34;100550.01;;;23.89;31.50
37710;BME280;60223;34.854;-92.408;2022-07-24T06:45:59;100550.54;;;23.41;32.04
37710;BME280;60223;34.854;-92.408;2022-07-24T06:48:26;100547.80;;;23.51;31.75
37710;BME280;60223;34.854;-92.408;2022-07-24T06:50:51;100546.01;;;24.02;31.38
37710;BME280;60223;34.854;-92.408;2022-07-24T06:53:14;100542.13;;;23.29;31.52
37710;BME280;60223;34.854;-92.408;2022-07-24T06:55:42;100541.39;;;23.78;31.19
37710;BME280;60223;34.854;-92.408;2022-07-24T06:58:08;100542.12;;;23.56;31.60
37710;BME280;60223;34.854;-92.408;2022-07-24T07:00:33;100537.59;;;23.40;31.39
37710;BME280;60223;34.854;-92.408;2022-07-24T07:03:00;100538.80;;;23.05;31.66
37710;BME280;60223;34.854;-92.408;2022-07-24T07:05:25;100535.19;;;23.33;32.47
37710;BME280;60223;34.854;-92.408;2022-07-24T07:07:51;100534.08;;;26.80;28.81
37710;BME280;60223;34.854;-92.408;2022-07-24T07:10:13;100531.50;;;27.82;27.17
37710;BME280;60223;34.854;-92.408;2022-07-24T07:12:42;100529.58;;;28.01;26.76
37710;BME280;60223;34.854;-92.408;2022-07-24T07:15:09;100524.49;;;28.98;25.90
37710;BME280;60223;34.854;-92.408;2022-07-24T07:17:33;100518.00;;;28.87;25.70
37710;BME280;60223;34.854;-92.408;2022-07-24T07:19:59;100518.75;;;29.24;25.53
37710;BME280;60223;34.854;-92.408;2022-07-24T07:22:25;100526.63;;;29.49;25.39
37710;BME280;60223;34.854;-92.408;2022-07-24T07:24:50;100529.17;;;29.49;25.30
37710;BME280;60223;34.854;-92.408;2022-07-24T07:27:15;100530.46;;;29.40;25.49
37710;BME280;60223;34.854;-92.408;2022-07-24T07:29:42;100535.64;;;29.64;25.18
37710;BME280;60223;34.854;-92.408;2022-07-24T07:32:07;100539.12;;;29.79;25.17
37710;BME280;60223;34.854;-92.408;2022-07-24T07:34:31;100539.71;;;29.54;25.54
37710;BME280;60223;34.854;-92.408;2022-07-24T07:36:58;100546.13;;;29.28;25.60
37710;BME280;60223;34.854;-92.408;2022-07-24T07:39:24;100550.98;;;29.88;25.41
37710;BME280;60223;34.854;-92.408;2022-07-24T07:41:49;100557.71;;;29.64;25.67
37710;BME280;60223;34.854;-92.408;2022-07-24T07:44:15;100560.85;;;30.14;25.35
37710;BME280;60223;34.854;-92.408;2022-07-24T07:46:41;100558.94;;;29.76;25.35
37710;BME280;60223;34.854;-92.408;2022-07-24T07:49:05;100558.92;;;29.47;25.71
37710;BME280;60223;34.854;-92.408;2022-07-24T07:51:32;100549.99;;;29.86;25.41
37710;BME280;60223;34.854;-92.408;2022-07-24T07:53:57;100554.14;;;29.61;25.81
37710;BME280;60223;34.854;-92.408;2022-07-24T07:56:24;100551.84;;;29.57;25.82
37710;BME280;60223;34.854;-92.408;2022-07-24T07:58:49;100559.37;;;29.76;25.71
37710;BME280;60223;34.854;-92.408;2022-07-24T08:01:12;100557.71;;;29.74;25.83
37710;BME280;60223;34.854;-92.408;2022-07-24T08:03:40;100561.52;;;29.82;25.84
37710;BME280;60223;34.854;-92.408;2022-07-24T08:06:06;100560.95;;;29.77;25.93
37710;BME280;60223;34.854;-92.408;2022-07-24T08:08:31;100565.40;;;29.94;25.80
37710;BME280;60223;34.854;-92.408;2022-07-24T08:10:56;100566.86;;;29.63;26.15
37710;BME280;60223;34.854;-92.408;2022-07-24T08:13:23;100569.41;;;29.51;26.34
37710;BME280;60223;34.854;-92.408;2022-07-24T08:15:48;100566.18;;;29.67;26.03
37710;BME280;60223;34.854;-92.408;2022-07-24T08:18:17;100560.78;;;29.39;26.39
37710;BME280;60223;34.854;-92.408;2022-07-24T08:20:37;100555.52;;;29.89;26.19
37710;BME280;60223;34.854;-92.408;2022-07-24T08:23:04;100559.56;;;29.55;26.36
37710;BME280;60223;34.854;-92.408;2022-07-24T08:25:29;100565.16;;;30.25;26.00
37710;BME280;60223;34.854;-92.408;2022-07-24T08:27:56;100564.76;;;29.73;26.32
37710;BME280;60223;34.854;-92.408;2022-07-24T08:30:20;100559.39;;;29.75;26.36
37710;BME280;60223;34.854;-92.408;2022-07-24T08:32:47;100555.33;;;29.76;26.42
37710;BME280;60223;34.854;-92.408;2022-07-24T08:35:13;100558.05;;;29.95;26.24
37710;BME280;60223;34.854;-92.408;2022-07-24T08:37:39;100555.37;;;29.82;26.44
37710;BME280;60223;34.854;-92.408;2022-07-24T08:40:05;100559.88;;;30.22;26.37
37710;BME280;60223;34.854;-92.408;2022-07-24T08:42:27;100560.56;;;29.76;26.59
37710;BME280;60223;34.854;-92.408;2022-07-24T08:44:55;100560.40;;;29.99;26.65
37710;BME280;60223;34.854;-92.408;2022-07-24T08:47:20;100550.86;;;30.02;26.43
37710;BME280;60223;34.854;-92.408;2022-07-24T08:49:48;100535.14;;;28.88;28.08
37710;BME280;60223;34.854;-92.408;2022-07-24T08:52:12;100535.47;;;25.92;30.08
37710;BME280;60223;34.854;-92.408;2022-07-24T08:54:37;100538.66;;;25.67;30.42
37710;BME280;60223;34.854;-92.408;2022-07-24T08:57:03;100547.19;;;24.50;31.55
37710;BME280;60223;34.854;-92.408;2022-07-24T08:59:27;100549.82;;;24.25;31.41
37710;BME280;60223;34.854;-92.408;2022-07-24T09:01:55;100547.46;;;24.53;31.63
37710;BME280;60223;34.854;-92.408;2022-07-24T09:04:32;100547.95;;;23.67;31.83
37710;BME280;60223;34.854;-92.408;2022-07-24T09:09:11;100561.64;;;23.39;32.15
37710;BME280;60223;34.854;-92.408;2022-07-24T09:11:39;100562.07;;;24.16;31.26
37710;BME280;60223;34.854;-92.408;2022-07-24T09:14:04;100564.97;;;23.27;31.95
37710;BME280;60223;34.854;-92.408;2022-07-24T09:16:27;100568.03;;;23.33;31.77
37710;BME280;60223;34.854;-92.408;2022-07-24T09:21:20;100568.46;;;23.54;31.29
37710;BME280;60223;34.854;-92.408;2022-07-24T09:23:45;100562.51;;;22.71;32.24
37710;BME280;60223;34.854;-92.408;2022-07-24T09:26:09;100558.75;;;22.75;32.40
37710;BME280;60223;34.854;-92.408;2022-07-24T09:28:47;100564.47;;;23.11;31.78
37710;BME280;60223;34.854;-92.408;2022-07-24T09:31:05;100563.03;;;23.31;31.43
37710;BME280;60223;34.854;-92.408;2022-07-24T09:33:27;100567.08;;;24.72;30.55
37710;BME280;60223;34.854;-92.408;2022-07-24T09:35:52;100574.13;;;27.16;28.17
37710;BME280;60223;34.854;-92.408;2022-07-24T09:38:20;100580.61;;;27.41;27.26
37710;BME280;60223;34.854;-92.408;2022-07-24T09:40:45;100590.27;;;27.85;26.64
37710;BME280;60223;34.854;-92.408;2022-07-24T09:43:18;100599.95;;;28.73;25.90
37710;BME280;60223;34.854;-92.408;2022-07-24T09:48:00;100610.79;;;29.21;25.35
37710;BME280;60223;34.854;-92.408;2022-07-24T09:50:27;100619.28;;;29.51;25.20
37710;BME280;60223;34.854;-92.408;2022-07-24T09:52:52;100617.37;;;29.54;25.06
37710;BME280;60223;34.854;-92.408;2022-07-24T09:55:26;100620.28;;;29.80;25.16
37710;BME280;60223;34.854;-92.408;2022-07-24T09:57:41;100624.52;;;29.84;25.01
37710;BME280;60223;34.854;-92.408;2022-07-24T10:00:09;100629.17;;;29.57;25.11
37710;BME280;60223;34.854;-92.408;2022-07-24T10:02:35;100630.98;;;29.55;25.21
37710;BME280;60223;34.854;-92.408;2022-07-24T10:05:01;100641.78;;;29.89;25.05
37710;BME280;60223;34.854;-92.408;2022-07-24T10:07:27;100638.80;;;29.42;25.35
37710;BME280;60223;34.854;-92.408;2022-07-24T10:09:51;100639.16;;;29.61;25.27
37710;BME280;60223;34.854;-92.408;2022-07-24T10:12:17;100638.90;;;29.57;25.17
37710;BME280;60223;34.854;-92.408;2022-07-24T10:14:43;100640.18;;;29.64;25.17
37710;BME280;60223;34.854;-92.408;2022-07-24T10:17:07;100641.67;;;29.56;25.30
37710;BME280;60223;34.854;-92.408;2022-07-24T10:19:38;100644.25;;;29.58;25.38
37710;BME280;60223;34.854;-92.408;2022-07-24T10:22:00;100646.69;;;29.77;25.32
37710;BME280;60223;34.854;-92.408;2022-07-24T10:24:39;100648.17;;;29.55;25.54
37710;BME280;60223;34.854;-92.408;2022-07-24T10:26:51;100652.88;;;29.81;25.58
37710;BME280;60223;34.854;-92.408;2022-07-24T10:29:17;100653.83;;;29.33;25.66
37710;BME280;60223;34.854;-92.408;2022-07-24T10:31:43;100660.98;;;29.68;25.61
37710;BME280;60223;34.854;-92.408;2022-07-24T10:34:08;100666.29;;;30.01;25.40
37710;BME280;60223;34.854;-92.408;2022-07-24T10:36:35;100669.94;;;29.71;25.75
37710;BME280;60223;34.854;-92.408;2022-07-24T10:39:00;100666.08;;;29.58;25.93
37710;BME280;60223;34.854;-92.408;2022-07-24T10:41:27;100667.64;;;29.84;25.75
37710;BME280;60223;34.854;-92.408;2022-07-24T10:46:14;100673.56;;;29.96;25.73
37710;BME280;60223;34.854;-92.408;2022-07-24T10:48:41;100675.78;;;29.73;26.00
37710;BME280;60223;34.854;-92.408;2022-07-24T10:51:07;100677.18;;;29.79;25.82
37710;BME280;60223;34.854;-92.408;2022-07-24T10:59:01;100684.24;;;29.99;26.04
37710;BME280;60223;34.854;-92.408;2022-07-24T11:00:50;100687.09;;;29.61;26.21
37710;BME280;60223;34.854;-92.408;2022-07-24T11:03:20;100685.23;;;30.00;26.09
37710;BME280;60223;34.854;-92.408;2022-07-24T11:05:41;100685.67;;;29.95;26.19
37710;BME280;60223;34.854;-92.408;2022-07-24T11:10:44;100701.87;;;29.87;26.37
37710;BME280;60223;34.854;-92.408;2022-07-24T11:12:55;100707.33;;;30.29;26.03
37710;BME280;60223;34.854;-92.408;2022-07-24T11:15:23;100708.12;;;30.13;26.25
37710;BME280;60223;34.854;-92.408;2022-07-24T11:17:49;100711.51;;;29.90;26.25
37710;BME280;60223;34.854;-92.408;2022-07-24T11:20:14;100716.75;;;29.91;26.28
37710;BME280;60223;34.854;-92.408;2022-07-24T11:22:43;100715.28;;;29.77;26.44
37710;BME280;60223;34.854;-92.408;2022-07-24T11:25:12;100711.88;;;30.05;26.46
37710;BME280;60223;34.854;-92.408;2022-07-24T11:29:56;100711.48;;;29.57;26.74
37710;BME280;60223;34.854;-92.408;2022-07-24T11:32:20;100718.60;;;29.75;26.64
37710;BME280;60223;34.854;-92.408;2022-07-24T11:34:49;100724.82;;;29.88;26.52
37710;BME280;60223;34.854;-92.408;2022-07-24T11:37:13;100726.01;;;30.04;26.45
37710;BME280;60223;34.854;-92.408;2022-07-24T11:39:39;100724.76;;;29.63;26.63
37710;BME280;60223;34.854;-92.408;2022-07-24T11:42:06;100726.88;;;29.97;26.60
37710;BME280;60223;34.854;-92.408;2022-07-24T11:44:32;100729.90;;;29.79;26.62
37710;BME280;60223;34.854;-92.408;2022-07-24T11:46:56;100731.24;;;29.33;28.24
37710;BME280;60223;34.854;-92.408;2022-07-24T11:49:20;100737.84;;;30.79;26.66
37710;BME280;60223;34.854;-92.408;2022-07-24T11:51:48;100736.99;;;30.92;26.55
37710;BME280;60223;34.854;-92.408;2022-07-24T11:54:11;100744.40;;;30.53;26.42
37710;BME280;60223;34.854;-92.408;2022-07-24T11:56:38;100746.91;;;30.93;26.36
37710;BME280;60223;34.854;-92.408;2022-07-24T11:59:03;100748.31;;;30.88;26.43
37710;BME280;60223;34.854;-92.408;2022-07-24T12:03:57;100749.30;;;31.13;27.64
37710;BME280;60223;34.854;-92.408;2022-07-24T12:06:22;100749.04;;;31.18;28.34
37710;BME280;60223;34.854;-92.408;2022-07-24T12:08:46;100747.39;;;31.77;28.17
37710;BME280;60223;34.854;-92.408;2022-07-24T12:11:09;100746.05;;;31.36;30.28
37710;BME280;60223;34.854;-92.408;2022-07-24T12:13:40;100742.69;;;31.30;30.66
37710;BME280;60223;34.854;-92.408;2022-07-24T12:16:03;100746.55;;;31.03;31.00
37710;BME280;60223;34.854;-92.408;2022-07-24T12:18:29;100743.68;;;31.35;31.97
37710;BME280;60223;34.854;-92.408;2022-07-24T12:20:58;100739.66;;;31.26;32.39
37710;BME280;60223;34.854;-92.408;2022-07-24T12:23:20;100735.44;;;31.87;31.67
37710;BME280;60223;34.854;-92.408;2022-07-24T12:25:46;100726.97;;;32.49;31.36
37710;BME280;60223;34.854;-92.408;2022-07-24T12:28:12;100730.86;;;32.12;30.53
37710;BME280;60223;34.854;-92.408;2022-07-24T12:30:37;100738.26;;;31.99;33.50
37710;BME280;60223;34.854;-92.408;2022-07-24T12:33:01;100732.30;;;32.24;33.97
37710;BME280;60223;34.854;-92.408;2022-07-24T12:35:25;100729.62;;;31.64;35.04
37710;BME280;60223;34.854;-92.408;2022-07-24T12:37:52;100728.52;;;32.05;34.87
37710;BME280;60223;34.854;-92.408;2022-07-24T12:40:23;100728.61;;;31.72;34.49
37710;BME280;60223;34.854;-92.408;2022-07-24T12:42:42;100726.04;;;31.98;35.19
37710;BME280;60223;34.854;-92.408;2022-07-24T12:45:11;100725.83;;;31.50;35.20
37710;BME280;60223;34.854;-92.408;2022-07-24T12:47:33;100724.67;;;31.91;34.72
37710;BME280;60223;34.854;-92.408;2022-07-24T12:49:58;100727.12;;;31.80;35.41
37710;BME280;60223;34.854;-92.408;2022-07-24T12:52:25;100726.50;;;32.66;34.58
37710;BME280;60223;34.854;-92.408;2022-07-24T12:54:49;100728.58;;;31.60;35.50
37710;BME280;60223;34.854;-92.408;2022-07-24T12:57:12;100722.28;;;31.63;35.51
37710;BME280;60223;34.854;-92.408;2022-07-24T12:59:41;100718.24;;;32.53;35.19
37710;BME280;60223;34.854;-92.408;2022-07-24T13:02:07;100717.92;;;32.20;35.56